sensor_id;sensor_type;location;lat;lon;timestamp;P1;durP1;ratioP1;P2;durP2;ratioP2
5129;SDS011;2583;50.946;6.954;2023-06-14T00:00:21;6.47;;;5.97;;
5129;SDS011;2583;50.946;6.954;2023-06-14T00:02:48;4.80;;;4.50;;
5129;SDS011;2583;50.946;6.954;2023-06-14T00:05:15;4.93;;;4.50;;
5129;SDS011;2583;50.946;6.954;2023-06-14T00:07:42;6.10;;;5.00;;
5129;SDS011;2583;50.946;6.954;2023-06-14T00:10:10;7.47;;;6.73;;
5129;SDS011;2583;50.946;6.954;2023-06-14T00:12:37;5.30;;;5.00;;
5129;SDS011;2583;50.946;6.954;2023-06-14T00:15:05;6.50;;;5.90;;
5129;SDS011;2583;50.946;6.954;2023-06-14T00:17:33;6.60;;;6.10;;
5129;SDS011;2583;50.946;6.954;2023-06-14T00:20:02;6.07;;;5.60;;
5129;SDS011;2583;50.946;6.954;2023-06-14T00:22:33;7.33;;;5.30;;
5129;SDS011;2583;50.946;6.954;2023-06-14T00:25:00;5.83;;;5.43;;
5129;SDS011;2583;50.946;6.954;2023-06-14T00:27:36;5.50;;;4.93;;
5129;SDS011;2583;50.946;6.954;2023-06-14T00:30:03;5.87;;;5.37;;
5129;SDS011;2583;50.946;6.954;2023-06-14T00:32:30;5.40;;;4.80;;
5129;SDS011;2583;50.946;6.954;2023-06-14T00:34:58;4.63;;;4.33;;
5129;SDS011;2583;50.946;6.954;2023-06-14T00:37:25;5.57;;;4.90;;
5129;SDS011;2583;50.946;6.954;2023-06-14T00:39:52;5.30;;;5.00;;
5129;SDS011;2583;50.946;6.954;2023-06-14T00:42:25;4.90;;;4.60;;
5129;SDS011;2583;50.946;6.954;2023-06-14T00:44:52;4.87;;;4.30;;
5129;SDS011;2583;50.946;6.954;2023-06-14T00:47:21;5.63;;;5.20;;
5129;SDS011;2583;50.946;6.954;2023-06-14T00:49:49;5.20;;;4.70;;
5129;SDS011;2583;50.946;6.954;2023-06-14T00:52:20;5.47;;;5.07;;
5129;SDS011;2583;50.946;6.954;2023-06-14T00:54:47;5.47;;;4.97;;
5129;SDS011;2583;50.946;6.954;2023-06-14T00:57:14;5.50;;;5.10;;
5129;SDS011;2583;50.946;6.954;2023-06-14T00:59:45;5.20;;;4.90;;
5129;SDS011;2583;50.946;6.954;2023-06-14T01:02:13;5.43;;;5.13;;
5129;SDS011;2583;50.946;6.954;2023-06-14T01:04:47;7.73;;;5.90;;
5129;SDS011;2583;50.946;6.954;2023-06-14T01:12:58;5.20;;;4.80;;
5129;SDS011;2583;50.946;6.954;2023-06-14T01:15:31;5.50;;;5.00;;
5129;SDS011;2583;50.946;6.954;2023-06-14T01:17:59;8.37;;;5.17;;
5129;SDS011;2583;50.946;6.954;2023-06-14T01:20:30;4.90;;;4.60;;
5129;SDS011;2583;50.946;6.954;2023-06-14T01:22:58;5.77;;;5.37;;
5129;SDS011;2583;50.946;6.954;2023-06-14T01:25:25;7.13;;;5.27;;
5129;SDS011;2583;50.946;6.954;2023-06-14T01:27:53;5.47;;;5.03;;
5129;SDS011;2583;50.946;6.954;2023-06-14T01:30:36;6.90;;;5.40;;
5129;SDS011;2583;50.946;6.954;2023-06-14T01:33:04;6.70;;;5.80;;
5129;SDS011;2583;50.946;6.954;2023-06-14T01:35:31;6.53;;;5.67;;
5129;SDS011;2583;50.946;6.954;2023-06-14T01:37:58;5.40;;;5.03;;
5129;SDS011;2583;50.946;6.954;2023-06-14T01:40:26;5.73;;;4.87;;
5129;SDS011;2583;50.946;6.954;2023-06-14T01:42:54;6.97;;;5.73;;
5129;SDS011;2583;50.946;6.954;2023-06-14T01:45:21;5.47;;;4.97;;
5129;SDS011;2583;50.946;6.954;2023-06-14T01:47:48;5.90;;;5.47;;
5129;SDS011;2583;50.946;6.954;2023-06-14T01:50:16;6.20;;;5.80;;
5129;SDS011;2583;50.946;6.954;2023-06-14T01:52:44;6.73;;;5.20;;
5129;SDS011;2583;50.946;6.954;2023-06-14T01:55:11;6.17;;;5.77;;
5129;SDS011;2583;50.946;6.954;2023-06-14T01:57:38;5.53;;;5.13;;
5129;SDS011;2583;50.946;6.954;2023-06-14T02:00:05;5.90;;;5.43;;
5129;SDS011;2583;50.946;6.954;2023-06-14T02:02:34;5.70;;;5.30;;
5129;SDS011;2583;50.946;6.954;2023-06-14T02:05:01;6.63;;;4.90;;
5129;SDS011;2583;50.946;6.954;2023-06-14T02:07:28;5.10;;;4.70;;
5129;SDS011;2583;50.946;6.954;2023-06-14T02:09:55;5.67;;;5.17;;
5129;SDS011;2583;50.946;6.954;2023-06-14T02:12:22;4.73;;;4.33;;
5129;SDS011;2583;50.946;6.954;2023-06-14T02:14:49;5.23;;;4.77;;
5129;SDS011;2583;50.946;6.954;2023-06-14T02:17:16;4.53;;;4.23;;
5129;SDS011;2583;50.946;6.954;2023-06-14T02:19:43;5.43;;;4.70;;
5129;SDS011;2583;50.946;6.954;2023-06-14T02:22:10;5.63;;;5.00;;
5129;SDS011;2583;50.946;6.954;2023-06-14T02:24:36;5.20;;;4.60;;
5129;SDS011;2583;50.946;6.954;2023-06-14T02:27:04;5.00;;;4.57;;
5129;SDS011;2583;50.946;6.954;2023-06-14T02:29:31;5.33;;;4.70;;
5129;SDS011;2583;50.946;6.954;2023-06-14T02:31:57;5.00;;;4.57;;
5129;SDS011;2583;50.946;6.954;2023-06-14T02:34:24;6.53;;;4.10;;
5129;SDS011;2583;50.946;6.954;2023-06-14T02:36:51;5.10;;;3.93;;
5129;SDS011;2583;50.946;6.954;2023-06-14T02:39:18;5.20;;;4.70;;
5129;SDS011;2583;50.946;6.954;2023-06-14T02:41:47;8.17;;;4.37;;
5129;SDS011;2583;50.946;6.954;2023-06-14T02:44:13;5.00;;;4.60;;
5129;SDS011;2583;50.946;6.954;2023-06-14T02:46:41;4.80;;;4.30;;
5129;SDS011;2583;50.946;6.954;2023-06-14T02:49:10;7.40;;;4.40;;
5129;SDS011;2583;50.946;6.954;2023-06-14T02:51:37;4.07;;;3.77;;
5129;SDS011;2583;50.946;6.954;2023-06-14T02:54:04;4.70;;;4.30;;
5129;SDS011;2583;50.946;6.954;2023-06-14T02:56:31;7.03;;;4.33;;
5129;SDS011;2583;50.946;6.954;2023-06-14T02:58:57;5.97;;;4.10;;
5129;SDS011;2583;50.946;6.954;2023-06-14T03:01:25;6.07;;;4.10;;
5129;SDS011;2583;50.946;6.954;2023-06-14T03:04:03;5.00;;;4.60;;
5129;SDS011;2583;50.946;6.954;2023-06-14T03:06:30;5.00;;;4.60;;
5129;SDS011;2583;50.946;6.954;2023-06-14T03:08:57;5.10;;;4.13;;
5129;SDS011;2583;50.946;6.954;2023-06-14T03:11:29;4.90;;;4.50;;
5129;SDS011;2583;50.946;6.954;2023-06-14T03:13:56;6.13;;;4.60;;
5129;SDS011;2583;50.946;6.954;2023-06-14T03:16:23;6.50;;;4.67;;
5129;SDS011;2583;50.946;6.954;2023-06-14T03:18:51;4.70;;;4.40;;
5129;SDS011;2583;50.946;6.954;2023-06-14T03:21:18;4.60;;;4.20;;
5129;SDS011;2583;50.946;6.954;2023-06-14T03:23:49;4.90;;;4.60;;
5129;SDS011;2583;50.946;6.954;2023-06-14T03:26:16;5.27;;;4.43;;
5129;SDS011;2583;50.946;6.954;2023-06-14T03:28:46;4.60;;;3.97;;
5129;SDS011;2583;50.946;6.954;2023-06-14T03:31:13;4.23;;;3.93;;
5129;SDS011;2583;50.946;6.954;2023-06-14T03:33:41;4.20;;;3.80;;
5129;SDS011;2583;50.946;6.954;2023-06-14T03:36:08;4.30;;;3.90;;
5129;SDS011;2583;50.946;6.954;2023-06-14T03:38:35;4.07;;;3.70;;
5129;SDS011;2583;50.946;6.954;2023-06-14T03:41:01;4.70;;;4.30;;
5129;SDS011;2583;50.946;6.954;2023-06-14T03:43:28;5.13;;;4.67;;
5129;SDS011;2583;50.946;6.954;2023-06-14T03:45:56;3.90;;;3.70;;
5129;SDS011;2583;50.946;6.954;2023-06-14T03:48:23;5.00;;;4.50;;
5129;SDS011;2583;50.946;6.954;2023-06-14T03:50:50;6.73;;;4.20;;
5129;SDS011;2583;50.946;6.954;2023-06-14T03:53:17;7.00;;;4.33;;
5129;SDS011;2583;50.946;6.954;2023-06-14T03:55:46;5.27;;;4.27;;
5129;SDS011;2583;50.946;6.954;2023-06-14T03:58:17;4.73;;;4.30;;
5129;SDS011;2583;50.946;6.954;2023-06-14T04:00:44;5.90;;;4.20;;
5129;SDS011;2583;50.946;6.954;2023-06-14T04:03:11;4.73;;;4.33;;
5129;SDS011;2583;50.946;6.954;2023-06-14T04:05:55;4.40;;;4.10;;
5129;SDS011;2583;50.946;6.954;2023-06-14T04:08:23;4.70;;;4.30;;
5129;SDS011;2583;50.946;6.954;2023-06-14T04:10:50;4.50;;;4.17;;
5129;SDS011;2583;50.946;6.954;2023-06-14T04:13:17;5.00;;;4.60;;
5129;SDS011;2583;50.946;6.954;2023-06-14T04:15:44;4.37;;;3.57;;
5129;SDS011;2583;50.946;6.954;2023-06-14T04:18:12;5.00;;;3.40;;
5129;SDS011;2583;50.946;6.954;2023-06-14T04:20:39;4.20;;;3.90;;
5129;SDS011;2583;50.946;6.954;2023-06-14T04:23:13;4.10;;;3.77;;
5129;SDS011;2583;50.946;6.954;2023-06-14T04:25:46;5.97;;;3.80;;
5129;SDS011;2583;50.946;6.954;2023-06-14T04:28:13;5.00;;;3.97;;
5129;SDS011;2583;50.946;6.954;2023-06-14T04:30:42;4.27;;;3.57;;
5129;SDS011;2583;50.946;6.954;2023-06-14T04:33:09;9.13;;;4.37;;
5129;SDS011;2583;50.946;6.954;2023-06-14T04:35:36;3.93;;;3.53;;
5129;SDS011;2583;50.946;6.954;2023-06-14T04:38:03;4.73;;;4.20;;
5129;SDS011;2583;50.946;6.954;2023-06-14T04:40:36;4.13;;;3.73;;
5129;SDS011;2583;50.946;6.954;2023-06-14T04:43:09;6.80;;;4.30;;
5129;SDS011;2583;50.946;6.954;2023-06-14T04:45:38;3.80;;;3.20;;
5129;SDS011;2583;50.946;6.954;2023-06-14T04:48:06;4.43;;;3.60;;
5129;SDS011;2583;50.946;6.954;2023-06-14T04:50:33;7.10;;;3.90;;
5129;SDS011;2583;50.946;6.954;2023-06-14T04:53:01;4.40;;;3.50;;
5129;SDS011;2583;50.946;6.954;2023-06-14T04:55:29;4.23;;;3.93;;
5129;SDS011;2583;50.946;6.954;2023-06-14T04:57:55;4.00;;;3.70;;
5129;SDS011;2583;50.946;6.954;2023-06-14T05:00:22;9.03;;;4.00;;
5129;SDS011;2583;50.946;6.954;2023-06-14T05:02:49;4.37;;;3.97;;
5129;SDS011;2583;50.946;6.954;2023-06-14T05:05:17;5.60;;;4.20;;
5129;SDS011;2583;50.946;6.954;2023-06-14T05:07:44;3.70;;;3.40;;
5129;SDS011;2583;50.946;6.954;2023-06-14T05:10:11;3.73;;;3.43;;
5129;SDS011;2583;50.946;6.954;2023-06-14T05:12:38;4.07;;;3.77;;
5129;SDS011;2583;50.946;6.954;2023-06-14T05:15:05;4.10;;;3.80;;
5129;SDS011;2583;50.946;6.954;2023-06-14T05:17:32;5.73;;;3.20;;
5129;SDS011;2583;50.946;6.954;2023-06-14T05:19:58;4.57;;;4.17;;
5129;SDS011;2583;50.946;6.954;2023-06-14T05:22:25;3.77;;;3.47;;
5129;SDS011;2583;50.946;6.954;2023-06-14T05:24:53;5.00;;;3.90;;
5129;SDS011;2583;50.946;6.954;2023-06-14T05:27:19;5.07;;;3.50;;
5129;SDS011;2583;50.946;6.954;2023-06-14T05:29:46;3.73;;;3.40;;
5129;SDS011;2583;50.946;6.954;2023-06-14T05:32:13;3.93;;;3.63;;
5129;SDS011;2583;50.946;6.954;2023-06-14T05:34:40;9.60;;;4.33;;
5129;SDS011;2583;50.946;6.954;2023-06-14T05:37:07;4.70;;;3.40;;
5129;SDS011;2583;50.946;6.954;2023-06-14T05:39:34;3.50;;;3.10;;
5129;SDS011;2583;50.946;6.954;2023-06-14T05:42:00;8.10;;;3.77;;
5129;SDS011;2583;50.946;6.954;2023-06-14T05:44:27;8.50;;;4.37;;
5129;SDS011;2583;50.946;6.954;2023-06-14T05:46:54;5.67;;;3.87;;
5129;SDS011;2583;50.946;6.954;2023-06-14T05:49:20;13.40;;;4.37;;
5129;SDS011;2583;50.946;6.954;2023-06-14T05:51:47;3.90;;;3.53;;
5129;SDS011;2583;50.946;6.954;2023-06-14T05:54:14;3.80;;;3.40;;
5129;SDS011;2583;50.946;6.954;2023-06-14T05:56:41;4.97;;;3.70;;
5129;SDS011;2583;50.946;6.954;2023-06-14T05:59:08;6.30;;;3.13;;
5129;SDS011;2583;50.946;6.954;2023-06-14T06:01:34;5.30;;;3.33;;
5129;SDS011;2583;50.946;6.954;2023-06-14T06:04:02;8.20;;;3.30;;
5129;SDS011;2583;50.946;6.954;2023-06-14T06:06:30;12.63;;;3.97;;
5129;SDS011;2583;50.946;6.954;2023-06-14T06:08:56;5.90;;;3.40;;
5129;SDS011;2583;50.946;6.954;2023-06-14T06:11:24;4.40;;;3.23;;
5129;SDS011;2583;50.946;6.954;2023-06-14T06:13:51;8.60;;;3.07;;
5129;SDS011;2583;50.946;6.954;2023-06-14T06:16:17;5.23;;;4.40;;
5129;SDS011;2583;50.946;6.954;2023-06-14T06:18:44;12.10;;;4.03;;
5129;SDS011;2583;50.946;6.954;2023-06-14T06:21:11;11.33;;;4.03;;
5129;SDS011;2583;50.946;6.954;2023-06-14T06:23:38;6.07;;;3.00;;
5129;SDS011;2583;50.946;6.954;2023-06-14T06:26:04;8.63;;;3.70;;
5129;SDS011;2583;50.946;6.954;2023-06-14T06:28:31;5.43;;;3.30;;
5129;SDS011;2583;50.946;6.954;2023-06-14T06:30:58;6.50;;;3.07;;
5129;SDS011;2583;50.946;6.954;2023-06-14T06:33:25;4.50;;;3.30;;
5129;SDS011;2583;50.946;6.954;2023-06-14T06:35:51;3.57;;;3.13;;
5129;SDS011;2583;50.946;6.954;2023-06-14T06:38:18;4.10;;;3.40;;
5129;SDS011;2583;50.946;6.954;2023-06-14T06:40:45;5.17;;;3.00;;
5129;SDS011;2583;50.946;6.954;2023-06-14T06:43:12;4.23;;;2.67;;
5129;SDS011;2583;50.946;6.954;2023-06-14T06:45:43;4.00;;;2.60;;
5129;SDS011;2583;50.946;6.954;2023-06-14T06:48:09;5.50;;;3.13;;
5129;SDS011;2583;50.946;6.954;2023-06-14T06:50:36;4.20;;;3.40;;
5129;SDS011;2583;50.946;6.954;2023-06-14T06:53:03;5.93;;;3.37;;
5129;SDS011;2583;50.946;6.954;2023-06-14T06:55:31;2.60;;;2.40;;
5129;SDS011;2583;50.946;6.954;2023-06-14T06:57:58;9.20;;;2.50;;
5129;SDS011;2583;50.946;6.954;2023-06-14T07:00:26;4.27;;;2.90;;
5129;SDS011;2583;50.946;6.954;2023-06-14T07:02:54;5.83;;;2.90;;
5129;SDS011;2583;50.946;6.954;2023-06-14T07:05:21;2.53;;;2.33;;
5129;SDS011;2583;50.946;6.954;2023-06-14T07:07:48;3.77;;;2.80;;
5129;SDS011;2583;50.946;6.954;2023-06-14T07:10:15;3.30;;;2.50;;
5129;SDS011;2583;50.946;6.954;2023-06-14T07:12:41;3.50;;;3.03;;
5129;SDS011;2583;50.946;6.954;2023-06-14T07:15:08;3.20;;;3.00;;
5129;SDS011;2583;50.946;6.954;2023-06-14T07:17:35;2.63;;;2.43;;
5129;SDS011;2583;50.946;6.954;2023-06-14T07:20:03;3.80;;;2.50;;
5129;SDS011;2583;50.946;6.954;2023-06-14T07:22:40;4.00;;;2.50;;
5129;SDS011;2583;50.946;6.954;2023-06-14T07:25:11;3.33;;;3.03;;
5129;SDS011;2583;50.946;6.954;2023-06-14T07:27:42;4.13;;;2.57;;
5129;SDS011;2583;50.946;6.954;2023-06-14T07:30:10;4.90;;;2.80;;
5129;SDS011;2583;50.946;6.954;2023-06-14T07:32:37;2.73;;;2.10;;
5129;SDS011;2583;50.946;6.954;2023-06-14T07:35:04;2.43;;;2.23;;
5129;SDS011;2583;50.946;6.954;2023-06-14T07:37:31;3.70;;;2.30;;
5129;SDS011;2583;50.946;6.954;2023-06-14T07:39:58;3.20;;;2.73;;
5129;SDS011;2583;50.946;6.954;2023-06-14T07:42:25;3.70;;;2.30;;
5129;SDS011;2583;50.946;6.954;2023-06-14T07:44:52;4.57;;;2.40;;
5129;SDS011;2583;50.946;6.954;2023-06-14T07:47:19;5.70;;;2.27;;
5129;SDS011;2583;50.946;6.954;2023-06-14T07:49:46;3.57;;;2.13;;
5129;SDS011;2583;50.946;6.954;2023-06-14T07:52:13;4.40;;;2.17;;
5129;SDS011;2583;50.946;6.954;2023-06-14T07:54:40;1.93;;;1.83;;
5129;SDS011;2583;50.946;6.954;2023-06-14T07:57:07;5.50;;;2.10;;
5129;SDS011;2583;50.946;6.954;2023-06-14T07:59:35;2.00;;;1.80;;
5129;SDS011;2583;50.946;6.954;2023-06-14T08:02:02;4.80;;;2.07;;
5129;SDS011;2583;50.946;6.954;2023-06-14T08:04:29;2.40;;;1.50;;
5129;SDS011;2583;50.946;6.954;2023-06-14T08:06:56;2.10;;;1.90;;
5129;SDS011;2583;50.946;6.954;2023-06-14T08:09:22;1.70;;;1.53;;
5129;SDS011;2583;50.946;6.954;2023-06-14T08:11:51;3.97;;;2.10;;
5129;SDS011;2583;50.946;6.954;2023-06-14T08:14:17;1.50;;;1.40;;
5129;SDS011;2583;50.946;6.954;2023-06-14T08:16:44;1.93;;;1.73;;
5129;SDS011;2583;50.946;6.954;2023-06-14T08:19:11;1.50;;;1.23;;
5129;SDS011;2583;50.946;6.954;2023-06-14T08:21:38;1.97;;;1.60;;
5129;SDS011;2583;50.946;6.954;2023-06-14T08:24:04;1.97;;;1.50;;
5129;SDS011;2583;50.946;6.954;2023-06-14T08:26:31;1.80;;;1.60;;
5129;SDS011;2583;50.946;6.954;2023-06-14T08:28:58;3.40;;;1.50;;
5129;SDS011;2583;50.946;6.954;2023-06-14T08:31:25;1.60;;;1.40;;
5129;SDS011;2583;50.946;6.954;2023-06-14T08:33:53;4.20;;;1.80;;
5129;SDS011;2583;50.946;6.954;2023-06-14T08:36:20;1.90;;;1.63;;
5129;SDS011;2583;50.946;6.954;2023-06-14T08:38:49;2.00;;;1.80;;
5129;SDS011;2583;50.946;6.954;2023-06-14T08:41:20;2.17;;;1.63;;
5129;SDS011;2583;50.946;6.954;2023-06-14T08:43:48;2.63;;;1.40;;
5129;SDS011;2583;50.946;6.954;2023-06-14T08:46:17;1.60;;;1.50;;
5129;SDS011;2583;50.946;6.954;2023-06-14T08:48:47;1.77;;;1.67;;
5129;SDS011;2583;50.946;6.954;2023-06-14T08:51:17;1.63;;;1.20;;
5129;SDS011;2583;50.946;6.954;2023-06-14T08:53:45;5.17;;;2.10;;
5129;SDS011;2583;50.946;6.954;2023-06-14T08:56:17;3.13;;;1.37;;
5129;SDS011;2583;50.946;6.954;2023-06-14T08:58:46;1.60;;;1.30;;
5129;SDS011;2583;50.946;6.954;2023-06-14T09:01:14;2.40;;;1.70;;
5129;SDS011;2583;50.946;6.954;2023-06-14T09:03:43;2.00;;;1.77;;
5129;SDS011;2583;50.946;6.954;2023-06-14T09:06:11;2.57;;;1.40;;
5129;SDS011;2583;50.946;6.954;2023-06-14T09:08:43;2.83;;;1.90;;
5129;SDS011;2583;50.946;6.954;2023-06-14T09:11:13;1.57;;;1.47;;
5129;SDS011;2583;50.946;6.954;2023-06-14T09:13:41;1.67;;;1.57;;
5129;SDS011;2583;50.946;6.954;2023-06-14T09:16:09;3.43;;;1.93;;
5129;SDS011;2583;50.946;6.954;2023-06-14T09:18:39;2.90;;;1.17;;
5129;SDS011;2583;50.946;6.954;2023-06-14T09:21:10;1.57;;;1.20;;
5129;SDS011;2583;50.946;6.954;2023-06-14T09:23:38;5.53;;;1.70;;
5129;SDS011;2583;50.946;6.954;2023-06-14T09:26:07;1.70;;;1.30;;
5129;SDS011;2583;50.946;6.954;2023-06-14T09:28:36;2.80;;;1.50;;
5129;SDS011;2583;50.946;6.954;2023-06-14T09:31:07;2.07;;;1.80;;
5129;SDS011;2583;50.946;6.954;2023-06-14T09:33:35;2.13;;;1.80;;
5129;SDS011;2583;50.946;6.954;2023-06-14T09:36:03;2.00;;;1.80;;
5129;SDS011;2583;50.946;6.954;2023-06-14T09:38:35;2.47;;;1.47;;
5129;SDS011;2583;50.946;6.954;2023-06-14T09:41:02;2.80;;;1.70;;
5129;SDS011;2583;50.946;6.954;2023-06-14T09:43:30;3.60;;;1.63;;
5129;SDS011;2583;50.946;6.954;2023-06-14T09:46:00;4.90;;;2.30;;
5129;SDS011;2583;50.946;6.954;2023-06-14T09:48:27;2.50;;;2.27;;
5129;SDS011;2583;50.946;6.954;2023-06-14T09:50:54;2.47;;;1.67;;
5129;SDS011;2583;50.946;6.954;2023-06-14T09:53:23;2.17;;;1.77;;
5129;SDS011;2583;50.946;6.954;2023-06-14T09:55:51;2.30;;;1.70;;
5129;SDS011;2583;50.946;6.954;2023-06-14T09:58:21;2.70;;;1.90;;
5129;SDS011;2583;50.946;6.954;2023-06-14T10:00:50;2.57;;;1.60;;
5129;SDS011;2583;50.946;6.954;2023-06-14T10:03:24;2.23;;;1.40;;
5129;SDS011;2583;50.946;6.954;2023-06-14T10:05:59;1.87;;;1.67;;
5129;SDS011;2583;50.946;6.954;2023-06-14T10:08:31;2.10;;;1.83;;
5129;SDS011;2583;50.946;6.954;2023-06-14T10:11:03;3.00;;;2.40;;
5129;SDS011;2583;50.946;6.954;2023-06-14T10:13:31;1.90;;;1.70;;
5129;SDS011;2583;50.946;6.954;2023-06-14T10:16:19;1.77;;;1.67;;
5129;SDS011;2583;50.946;6.954;2023-06-14T10:24:45;2.60;;;2.40;;
5129;SDS011;2583;50.946;6.954;2023-06-14T10:27:14;4.90;;;2.07;;
5129;SDS011;2583;50.946;6.954;2023-06-14T10:30:05;5.47;;;3.33;;
5129;SDS011;2583;50.946;6.954;2023-06-14T10:32:33;4.03;;;2.17;;
5129;SDS011;2583;50.946;6.954;2023-06-14T10:35:01;5.93;;;1.83;;
5129;SDS011;2583;50.946;6.954;2023-06-14T10:37:32;3.70;;;1.70;;
5129;SDS011;2583;50.946;6.954;2023-06-14T10:39:59;1.87;;;1.63;;
5129;SDS011;2583;50.946;6.954;2023-06-14T10:42:32;2.20;;;1.47;;
5129;SDS011;2583;50.946;6.954;2023-06-14T10:44:59;1.73;;;1.30;;
5129;SDS011;2583;50.946;6.954;2023-06-14T10:47:30;13.50;;;1.83;;
5129;SDS011;2583;50.946;6.954;2023-06-14T10:52:28;5.53;;;1.50;;
5129;SDS011;2583;50.946;6.954;2023-06-14T10:55:02;1.50;;;1.40;;
5129;SDS011;2583;50.946;6.954;2023-06-14T10:57:33;1.97;;;1.77;;
5129;SDS011;2583;50.946;6.954;2023-06-14T11:00:15;2.80;;;1.50;;
5129;SDS011;2583;50.946;6.954;2023-06-14T11:05:31;6.80;;;2.50;;
5129;SDS011;2583;50.946;6.954;2023-06-14T11:10:41;1.97;;;1.60;;
5129;SDS011;2583;50.946;6.954;2023-06-14T11:13:09;6.40;;;3.60;;
5129;SDS011;2583;50.946;6.954;2023-06-14T11:15:37;1.97;;;1.53;;
5129;SDS011;2583;50.946;6.954;2023-06-14T11:18:05;2.10;;;1.90;;
5129;SDS011;2583;50.946;6.954;2023-06-14T11:20:34;2.00;;;1.80;;
5129;SDS011;2583;50.946;6.954;2023-06-14T11:23:01;5.23;;;1.80;;
5129;SDS011;2583;50.946;6.954;2023-06-14T11:25:28;3.57;;;2.00;;
5129;SDS011;2583;50.946;6.954;2023-06-14T11:27:56;4.93;;;1.97;;
5129;SDS011;2583;50.946;6.954;2023-06-14T11:30:23;5.03;;;2.00;;
5129;SDS011;2583;50.946;6.954;2023-06-14T11:32:51;2.30;;;1.70;;
5129;SDS011;2583;50.946;6.954;2023-06-14T11:35:23;4.83;;;2.00;;
5129;SDS011;2583;50.946;6.954;2023-06-14T11:37:57;2.70;;;2.20;;
5129;SDS011;2583;50.946;6.954;2023-06-14T11:40:24;2.80;;;1.40;;
5129;SDS011;2583;50.946;6.954;2023-06-14T11:42:58;5.00;;;1.70;;
5129;SDS011;2583;50.946;6.954;2023-06-14T11:45:26;2.73;;;1.73;;
5129;SDS011;2583;50.946;6.954;2023-06-14T11:47:54;2.87;;;1.93;;
5129;SDS011;2583;50.946;6.954;2023-06-14T11:50:25;1.60;;;1.50;;
5129;SDS011;2583;50.946;6.954;2023-06-14T11:52:53;3.03;;;1.50;;
5129;SDS011;2583;50.946;6.954;2023-06-14T11:55:21;2.27;;;1.40;;
5129;SDS011;2583;50.946;6.954;2023-06-14T11:57:49;1.77;;;1.60;;
5129;SDS011;2583;50.946;6.954;2023-06-14T12:00:17;3.23;;;1.77;;
5129;SDS011;2583;50.946;6.954;2023-06-14T12:02:52;1.63;;;1.47;;
5129;SDS011;2583;50.946;6.954;2023-06-14T12:05:22;2.70;;;1.77;;
5129;SDS011;2583;50.946;6.954;2023-06-14T12:07:50;1.60;;;1.50;;
5129;SDS011;2583;50.946;6.954;2023-06-14T12:10:19;2.20;;;1.30;;
5129;SDS011;2583;50.946;6.954;2023-06-14T12:12:46;3.13;;;2.70;;
5129;SDS011;2583;50.946;6.954;2023-06-14T12:15:13;2.60;;;2.03;;
5129;SDS011;2583;50.946;6.954;2023-06-14T12:17:41;1.80;;;1.20;;
5129;SDS011;2583;50.946;6.954;2023-06-14T12:20:10;5.40;;;1.57;;
5129;SDS011;2583;50.946;6.954;2023-06-14T12:22:53;1.90;;;1.57;;
5129;SDS011;2583;50.946;6.954;2023-06-14T12:25:32;6.30;;;1.50;;
5129;SDS011;2583;50.946;6.954;2023-06-14T12:28:05;4.07;;;1.97;;
5129;SDS011;2583;50.946;6.954;2023-06-14T12:30:33;1.97;;;1.73;;
5129;SDS011;2583;50.946;6.954;2023-06-14T12:33:02;2.30;;;1.20;;
5129;SDS011;2583;50.946;6.954;2023-06-14T12:35:30;3.30;;;2.10;;
5129;SDS011;2583;50.946;6.954;2023-06-14T12:37:57;2.20;;;1.33;;
5129;SDS011;2583;50.946;6.954;2023-06-14T12:40:23;2.67;;;1.37;;
5129;SDS011;2583;50.946;6.954;2023-06-14T12:42:50;4.10;;;1.77;;
5129;SDS011;2583;50.946;6.954;2023-06-14T12:45:17;1.83;;;1.27;;
5129;SDS011;2583;50.946;6.954;2023-06-14T12:47:44;2.10;;;1.57;;
5129;SDS011;2583;50.946;6.954;2023-06-14T12:50:11;6.20;;;1.67;;
5129;SDS011;2583;50.946;6.954;2023-06-14T12:52:38;1.80;;;1.20;;
5129;SDS011;2583;50.946;6.954;2023-06-14T12:55:05;1.40;;;1.20;;
5129;SDS011;2583;50.946;6.954;2023-06-14T12:57:32;1.40;;;1.13;;
5129;SDS011;2583;50.946;6.954;2023-06-14T13:00:02;2.93;;;1.23;;
5129;SDS011;2583;50.946;6.954;2023-06-14T13:02:31;1.53;;;1.43;;
5129;SDS011;2583;50.946;6.954;2023-06-14T13:04:57;2.33;;;1.33;;
5129;SDS011;2583;50.946;6.954;2023-06-14T13:07:24;1.60;;;1.10;;
5129;SDS011;2583;50.946;6.954;2023-06-14T13:09:51;1.53;;;1.03;;
5129;SDS011;2583;50.946;6.954;2023-06-14T13:12:18;1.67;;;1.50;;
5129;SDS011;2583;50.946;6.954;2023-06-14T13:14:45;1.67;;;1.53;;
5129;SDS011;2583;50.946;6.954;2023-06-14T13:17:12;2.50;;;1.27;;
5129;SDS011;2583;50.946;6.954;2023-06-14T13:19:38;5.00;;;1.00;;
5129;SDS011;2583;50.946;6.954;2023-06-14T13:22:06;2.22;;;1.13;;
5129;SDS011;2583;50.946;6.954;2023-06-14T13:24:33;4.50;;;1.55;;
5129;SDS011;2583;50.946;6.954;2023-06-14T13:27:01;1.73;;;1.27;;
5129;SDS011;2583;50.946;6.954;2023-06-14T13:29:27;4.60;;;1.50;;
5129;SDS011;2583;50.946;6.954;2023-06-14T13:31:54;2.10;;;1.40;;
5129;SDS011;2583;50.946;6.954;2023-06-14T13:34:22;2.85;;;1.10;;
5129;SDS011;2583;50.946;6.954;2023-06-14T13:36:49;2.13;;;1.33;;
5129;SDS011;2583;50.946;6.954;2023-06-14T13:39:16;2.15;;;1.48;;
5129;SDS011;2583;50.946;6.954;2023-06-14T13:41:43;2.15;;;1.45;;
5129;SDS011;2583;50.946;6.954;2023-06-14T13:44:09;1.70;;;1.30;;
5129;SDS011;2583;50.946;6.954;2023-06-14T13:46:42;2.05;;;1.63;;
5129;SDS011;2583;50.946;6.954;2023-06-14T13:49:09;5.15;;;2.42;;
5129;SDS011;2583;50.946;6.954;2023-06-14T13:51:36;2.35;;;1.70;;
5129;SDS011;2583;50.946;6.954;2023-06-14T13:54:03;2.92;;;2.00;;
5129;SDS011;2583;50.946;6.954;2023-06-14T13:56:30;4.72;;;2.03;;
5129;SDS011;2583;50.946;6.954;2023-06-14T13:58:57;3.20;;;2.00;;
5129;SDS011;2583;50.946;6.954;2023-06-14T14:01:24;4.40;;;2.80;;
5129;SDS011;2583;50.946;6.954;2023-06-14T14:03:52;2.83;;;1.92;;
5129;SDS011;2583;50.946;6.954;2023-06-14T14:06:19;2.38;;;1.67;;
5129;SDS011;2583;50.946;6.954;2023-06-14T14:08:46;3.00;;;2.47;;
5129;SDS011;2583;50.946;6.954;2023-06-14T14:11:13;1.60;;;1.42;;
5129;SDS011;2583;50.946;6.954;2023-06-14T14:13:42;3.90;;;1.50;;
5129;SDS011;2583;50.946;6.954;2023-06-14T14:16:09;4.45;;;1.52;;
5129;SDS011;2583;50.946;6.954;2023-06-14T14:18:36;3.15;;;2.00;;
5129;SDS011;2583;50.946;6.954;2023-06-14T14:21:05;2.30;;;1.63;;
5129;SDS011;2583;50.946;6.954;2023-06-14T14:23:31;2.42;;;1.40;;
5129;SDS011;2583;50.946;6.954;2023-06-14T14:25:58;3.97;;;1.90;;
5129;SDS011;2583;50.946;6.954;2023-06-14T14:28:30;2.10;;;1.90;;
5129;SDS011;2583;50.946;6.954;2023-06-14T14:30:57;2.47;;;1.90;;
5129;SDS011;2583;50.946;6.954;2023-06-14T14:33:24;2.30;;;1.67;;
5129;SDS011;2583;50.946;6.954;2023-06-14T14:35:51;1.97;;;1.67;;
5129;SDS011;2583;50.946;6.954;2023-06-14T14:38:17;1.87;;;1.77;;
5129;SDS011;2583;50.946;6.954;2023-06-14T14:40:44;1.80;;;1.40;;
5129;SDS011;2583;50.946;6.954;2023-06-14T14:43:11;3.43;;;1.30;;
5129;SDS011;2583;50.946;6.954;2023-06-14T14:45:38;2.30;;;1.70;;
5129;SDS011;2583;50.946;6.954;2023-06-14T14:48:05;3.37;;;1.93;;
5129;SDS011;2583;50.946;6.954;2023-06-14T14:50:32;4.13;;;1.60;;
5129;SDS011;2583;50.946;6.954;2023-06-14T14:52:59;1.80;;;1.70;;
5129;SDS011;2583;50.946;6.954;2023-06-14T14:55:26;5.57;;;2.10;;
5129;SDS011;2583;50.946;6.954;2023-06-14T14:57:53;2.13;;;1.90;;
5129;SDS011;2583;50.946;6.954;2023-06-14T15:00:20;3.10;;;1.70;;
5129;SDS011;2583;50.946;6.954;2023-06-14T15:02:47;1.80;;;1.70;;
5129;SDS011;2583;50.946;6.954;2023-06-14T15:05:14;5.23;;;1.43;;
5129;SDS011;2583;50.946;6.954;2023-06-14T15:07:41;3.20;;;1.23;;
5129;SDS011;2583;50.946;6.954;2023-06-14T15:10:07;2.13;;;1.80;;
5129;SDS011;2583;50.946;6.954;2023-06-14T15:12:35;4.10;;;3.77;;
5129;SDS011;2583;50.946;6.954;2023-06-14T15:15:02;2.80;;;2.00;;
5129;SDS011;2583;50.946;6.954;2023-06-14T15:17:29;2.00;;;1.80;;
5129;SDS011;2583;50.946;6.954;2023-06-14T15:19:56;2.00;;;1.57;;
5129;SDS011;2583;50.946;6.954;2023-06-14T15:22:23;1.60;;;1.50;;
5129;SDS011;2583;50.946;6.954;2023-06-14T15:24:50;2.87;;;1.70;;
5129;SDS011;2583;50.946;6.954;2023-06-14T15:27:17;2.13;;;1.93;;
5129;SDS011;2583;50.946;6.954;2023-06-14T15:29:44;5.67;;;1.60;;
5129;SDS011;2583;50.946;6.954;2023-06-14T15:32:14;2.90;;;1.60;;
5129;SDS011;2583;50.946;6.954;2023-06-14T15:34:41;2.20;;;1.80;;
5129;SDS011;2583;50.946;6.954;2023-06-14T15:37:08;4.60;;;1.90;;
5129;SDS011;2583;50.946;6.954;2023-06-14T15:39:35;5.70;;;1.47;;